Time;durP1;ratioP1;P1;durP2;ratioP2;P2;SDS_P1;SDS_P2;PMS_P1;PMS_P2;Temp;Humidity;BMP_temperature;BMP_pressure;BME280_temperature;BME280_humidity;BME280_pressure;Samples;Min_cycle;Max_cycle;Signal;HPM_P1;HPM_P2
2022/12/20 13:54:44;;;;;;;3.35;2.60;;;18.50;49.80;;;;;;5037729;28;1467723;-85
2022/12/20 13:57:31;;;;;;;4.82;2.75;;;18.40;49.70;;;;;;5035262;28;20184;-82
2022/12/20 13:59:59;;;;;;;3.70;2.67;;;18.40;49.90;;;;;;5044278;28;20186;-81
2022/12/20 14:02:31;;;;;;;4.53;2.53;;;18.40;49.90;;;;;;5029242;28;20175;-80
2022/12/20 14:05:02;;;;;;;5.05;2.63;;;18.50;50.10;;;;;;5011692;28;20227;-82
2022/12/20 14:07:42;;;;;;;3.47;2.38;;;18.50;49.90;;;;;;5009796;28;20162;-81
2022/12/20 14:10:22;;;;;;;3.25;2.33;;;18.50;49.90;;;;;;5013916;28;20151;-82
2022/12/20 14:12:51;;;;;;;5.15;2.13;;;18.50;50.20;;;;;;4987440;28;20211;-84
2022/12/20 14:15:24;;;;;;;2.65;2.30;;;18.40;50.30;;;;;;5003826;28;20176;-82
2022/12/20 14:18:27;;;;;;;;;;;;;;;;;;;;;
2022/12/20 14:21:04;;;;;;;3.38;2.10;;;18.40;50.30;;;;;;4853236;29;20657;-80
2022/12/20 14:23:44;;;;;;;3.85;2.50;;;18.40;50.20;;;;;;4838490;29;20268;-79
2022/12/20 14:26:11;;;;;;;4.68;2.47;;;18.40;50.30;;;;;;4838238;29;20691;-80
2022/12/20 14:28:39;;;;;;;2.88;2.17;;;18.40;50.40;;;;;;4837925;29;20197;-80
2022/12/20 14:31:20;;;;;;;2.72;2.10;;;18.40;50.50;;;;;;4853500;29;20185;-80
2022/12/20 14:33:47;;;;;;;3.33;2.40;;;18.40;50.60;;;;;;4838318;29;20189;-79
2022/12/20 14:36:22;;;;;;;2.75;2.03;;;18.40;50.40;;;;;;4839198;29;20240;-79
2022/12/20 14:38:51;;;;;;;5.25;2.20;;;18.40;50.90;;;;;;4929202;29;20741;-81
2022/12/20 14:41:55;;;;;;;;;;;;;;;;;;;;;
2022/12/20 14:44:28;;;;;;;3.60;2.33;;;18.40;51.40;;;;;;4903660;29;20222;-82
2022/12/20 14:47:01;;;;;;;3.80;2.17;;;18.40;51.10;;;;;;4937692;29;20700;-82
2022/12/20 14:49:30;;;;;;;2.35;2.00;;;18.40;50.80;;;;;;4918700;29;20178;-82
2022/12/20 14:54:38;;;;;;;3.38;1.95;;;18.40;50.30;;;;;;5047878;28;20230;-82
2022/12/20 14:57:32;;;;;;;3.38;2.30;;;18.40;50.40;;;;;;4992561;28;20184;-81
2022/12/20 15:00:09;;;;;;;3.08;1.83;;;18.40;50.70;;;;;;4987685;28;20198;-82
2022/12/20 15:02:40;;;;;;;4.00;2.00;;;18.40;50.70;;;;;;4974692;28;20168;-84
2022/12/20 15:05:21;;;;;;;2.30;1.80;;;18.40;50.70;;;;;;4952486;29;20178;-81
2022/12/20 15:08:26;;;;;;;3.15;1.77;;;18.50;50.60;;;;;;4953347;29;20169;-85
2022/12/20 15:11:12;;;;;;;2.92;2.00;;;18.40;50.70;;;;;;4951537;29;20181;-81
2022/12/20 15:13:41;;;;;;;2.20;1.88;;;18.50;50.50;;;;;;4947917;29;20283;-82
2022/12/20 15:16:28;;;;;;;4.28;1.80;;;18.40;50.60;;;;;;4946213;29;20174;-83
2022/12/20 15:22:23;;;;;;;2.28;1.67;;;18.50;50.50;;;;;;4908138;29;20187;-83
2022/12/20 15:25:03;;;;;;;2.28;1.65;;;18.50;50.60;;;;;;4896426;29;20216;-84
2022/12/20 15:31:05;;;;;;;2.60;1.73;;;18.50;50.70;;;;;;4876549;29;20211;-83
2022/12/20 15:37:51;;;;;;;2.80;1.80;;;18.50;50.80;;;;;;4911143;29;20186;-82
2022/12/20 15:47:03;;;;;;;2.20;1.63;;;18.40;51.40;;;;;;4821472;29;20202;-83
2022/12/20 15:49:38;;;;;;;2.00;1.60;;;18.40;51.30;;;;;;4785998;30;20191;-84
2022/12/20 15:52:49;;;;;;;;;;;;;;;;;;;;;
2022/12/20 15:55:23;;;;;;;3.15;1.52;;;18.40;51.40;;;;;;4800034;30;20267;-83
2022/12/20 15:58:29;;;;;;;3.35;1.67;;;18.50;51.40;;;;;;4777176;30;20600;-84
2022/12/20 16:15:42;;;;;;;2.67;1.60;;;18.50;51.90;;;;;;4855415;29;20712;-85
2022/12/20 16:18:56;;;;;;;;;;;;;;;;;;;;;
2022/12/20 16:21:47;;;;;;;2.15;1.48;;;18.50;51.60;;;;;;4861285;29;20209;-83
2022/12/20 16:24:18;;;;;;;3.92;1.70;;;18.50;51.90;;;;;;4865064;29;20189;-85
2022/12/20 16:30:03;;;;;;;1.88;1.55;;;18.50;52.30;;;;;;4805121;29;20198;-86
2022/12/20 16:32:29;;;;;;;3.67;1.80;;;18.50;52.20;;;;;;4740781;30;20322;-83
2022/12/20 16:35:02;;;;;;;9.07;1.98;;;18.50;52.30;;;;;;4744348;30;20189;-86
2022/12/20 16:38:10;;;;;;;6.95;1.60;;;18.50;52.60;;;;;;4817606;29;20222;-86
2022/12/20 16:40:51;;;;;;;1.95;1.60;;;18.60;52.90;;;;;;4778547;30;20644;-85
2022/12/20 16:47:14;;;;;;;3.58;1.70;;;18.60;53.30;;;;;;4721304;30;20201;-85
2022/12/20 16:49:54;;;;;;;2.80;1.65;;;18.60;53.20;;;;;;4704983;30;20238;-86
2022/12/20 16:52:36;;;;;;;3.35;1.42;;;18.60;53.30;;;;;;4680994;30;20230;-86
2022/12/20 16:55:59;;;;;;;2.33;1.52;;;18.60;53.30;;;;;;4643356;30;20706;-83
2022/12/20 16:58:37;;;;;;;1.98;1.60;;;18.70;53.20;;;;;;4643052;30;20211;-84
2022/12/20 17:02:03;;;;;;;6.57;2.25;;;18.80;53.00;;;;;;4679966;30;20260;-81
2022/12/20 17:04:25;;;;;;;3.85;2.03;;;18.80;52.90;;;;;;4711738;30;20252;-84
2022/12/20 17:07:14;;;;;;;4.00;1.58;;;18.80;53.10;;;;;;4706689;30;20211;-82
2022/12/20 17:09:53;;;;;;;2.85;1.75;;;18.80;53.30;;;;;;4702179;30;21158;-84
2022/12/20 17:13:14;;;;;;;4.15;1.92;;;18.70;53.60;;;;;;4679634;30;20270;-85
2022/12/20 17:15:49;;;;;;;17.70;2.00;;;18.70;53.80;;;;;;4709473;30;20820;-83
2022/12/20 17:18:45;;;;;;;14.55;2.28;;;18.80;53.90;;;;;;4713507;30;20185;-83
2022/12/20 17:21:32;;;;;;;31.55;3.17;;;18.70;53.90;;;;;;4739117;30;20196;-85
2022/12/20 17:24:26;;;;;;;20.25;2.65;;;18.70;54.10;;;;;;4748591;30;20201;-85
2022/12/20 17:34:42;;;;;;;;;;;;;;;;;;;;;
2022/12/20 17:51:37;;;;;;;;;;;;;;;;;;;;;
2022/12/20 17:57:49;;;;;;;12.13;2.60;;;18.80;55.10;;;;;;4795113;29;20227;-85
2022/12/20 18:00:58;;;;;;;18.23;3.00;;;18.80;54.90;;;;;;4774784;30;20201;-84
2022/12/20 18:03:57;;;;;;;17.88;3.58;;;18.80;55.20;;;;;;4817287;29;20196;-85
2022/12/20 18:06:29;;;;;;;16.75;3.00;;;18.90;55.30;;;;;;4799775;29;20327;-84
2022/12/20 18:09:33;;;;;;;18.67;2.78;;;18.90;55.20;;;;;;4776147;29;20195;-84
2022/12/20 18:12:04;;;;;;;9.70;2.70;;;19.00;55.10;;;;;;4813423;29;20361;-86
2022/12/20 18:15:19;;;;;;;;;;;;;;;;;;;;;
2022/12/20 18:18:26;;;;;;;23.63;3.38;;;19.10;55.10;;;;;;4851093;29;20289;-84
2022/12/20 18:21:12;;;;;;;18.42;2.85;;;19.10;55.30;;;;;;4854069;29;20193;-86
2022/12/20 18:23:40;;;;;;;14.52;3.40;;;19.00;55.00;;;;;;4805085;29;20739;-85
2022/12/20 18:26:26;;;;;;;21.83;3.42;;;18.90;55.10;;;;;;4790858;29;20714;-86
2022/12/20 18:28:54;;;;;;;19.80;3.20;;;19.00;55.00;;;;;;4805451;29;20199;-83
2022/12/20 18:31:23;;;;;;;11.27;3.03;;;19.00;54.90;;;;;;4773390;30;20283;-82
2022/12/20 18:33:49;;;;;;;14.43;3.30;;;19.00;54.60;;;;;;4825772;29;20270;-82
2022/12/20 18:36:17;;;;;;;12.82;3.47;;;19.00;54.60;;;;;;4862608;29;20185;-82
2022/12/20 18:38:44;;;;;;;16.67;3.60;;;19.00;54.30;;;;;;4865506;29;20199;-79
2022/12/20 18:41:12;;;;;;;11.65;3.03;;;19.00;54.20;;;;;;4854049;29;20208;-82
2022/12/20 18:43:38;;;;;;;14.13;3.28;;;18.90;54.20;;;;;;4866701;29;20200;-82
2022/12/20 18:46:05;;;;;;;8.68;3.10;;;19.00;54.20;;;;;;4888606;29;20176;-81
2022/12/20 18:48:32;;;;;;;24.17;4.25;;;18.90;54.00;;;;;;4911413;29;20191;-80
2022/12/20 18:51:11;;;;;;;11.85;2.95;;;18.90;54.20;;;;;;4922550;29;20658;-82
2022/12/20 18:53:37;;;;;;;16.30;2.95;;;18.90;54.00;;;;;;4907739;28;20785;-82
2022/12/20 18:56:05;;;;;;;16.25;3.03;;;18.90;53.90;;;;;;4952558;28;20177;-83
2022/12/20 18:58:31;;;;;;;20.30;3.42;;;18.90;54.00;;;;;;4973042;28;20253;-83
2022/12/20 19:01:00;;;;;;;11.85;3.25;;;18.90;54.00;;;;;;4973551;28;20251;-83
2022/12/20 19:03:26;;;;;;;10.20;3.10;;;18.90;54.00;;;;;;4976971;28;20164;-81
2022/12/20 19:05:52;;;;;;;10.40;3.03;;;18.90;54.10;;;;;;4976089;28;20722;-83
2022/12/20 19:08:23;;;;;;;14.85;3.25;;;18.90;54.00;;;;;;5016123;28;20231;-82
2022/12/20 19:10:50;;;;;;;14.95;3.20;;;18.90;53.90;;;;;;5043764;28;20166;-81
2022/12/20 19:13:20;;;;;;;11.40;3.10;;;18.90;53.90;;;;;;5006531;28;20206;-82
2022/12/20 19:15:46;;;;;;;12.57;3.15;;;18.90;53.80;;;;;;5020622;28;20217;-83
2022/12/20 19:18:13;;;;;;;13.80;2.90;;;18.90;53.80;;;;;;5002616;28;20155;-83
2022/12/20 19:20:38;;;;;;;11.00;3.10;;;18.90;53.80;;;;;;5003787;28;20649;-83
2022/12/20 19:23:05;;;;;;;11.18;3.15;;;19.00;53.80;;;;;;5021322;28;20230;-84
2022/12/20 19:25:34;;;;;;;11.55;2.83;;;18.90;53.80;;;;;;5018763;28;20494;-85
2022/12/20 19:28:00;;;;;;;7.60;2.83;;;18.90;53.90;;;;;;5019242;28;20247;-84
2022/12/20 19:30:26;;;;;;;16.17;3.60;;;18.90;53.80;;;;;;5003247;28;20162;-84
2022/12/20 19:32:54;;;;;;;13.73;3.20;;;18.90;54.20;;;;;;5002825;28;20190;-82
2022/12/20 19:35:21;;;;;;;12.60;3.47;;;18.80;54.00;;;;;;5018812;28;20238;-85
2022/12/20 19:37:47;;;;;;;13.18;3.15;;;18.90;54.30;;;;;;5000739;28;20501;-85
2022/12/20 19:40:13;;;;;;;16.02;2.95;;;18.90;54.10;;;;;;5001969;28;20168;-84
2022/12/20 19:42:42;;;;;;;14.82;3.30;;;18.90;54.00;;;;;;4989764;28;20228;-82
2022/12/20 19:45:12;;;;;;;9.13;3.13;;;18.90;54.00;;;;;;5006486;28;20170;-84
2022/12/20 19:47:40;;;;;;;10.85;3.08;;;18.90;54.10;;;;;;4990535;28;20175;-83
2022/12/20 19:50:07;;;;;;;14.18;3.15;;;18.80;54.10;;;;;;4987380;28;20653;-84
2022/12/20 19:52:33;;;;;;;12.45;2.83;;;18.80;54.10;;;;;;5022530;28;20644;-84
2022/12/20 19:55:01;;;;;;;11.32;3.30;;;18.80;54.10;;;;;;5007496;28;20170;-82
2022/12/20 19:57:27;;;;;;;16.20;3.05;;;18.80;54.20;;;;;;5022603;28;20158;-84
2022/12/20 19:59:59;;;;;;;7.65;2.72;;;18.80;54.10;;;;;;5007650;28;20183;-82
2022/12/20 20:02:26;;;;;;;8.82;2.90;;;18.80;53.90;;;;;;5006194;28;20185;-83
2022/12/20 20:04:53;;;;;;;9.93;2.70;;;18.80;54.00;;;;;;5004461;28;20266;-82
2022/12/20 20:07:19;;;;;;;9.50;2.97;;;18.80;53.80;;;;;;4991378;28;20611;-83
2022/12/20 20:09:45;;;;;;;8.82;2.83;;;18.80;53.90;;;;;;5009447;28;20580;-83
2022/12/20 20:12:12;;;;;;;8.70;2.60;;;18.80;53.80;;;;;;5010472;28;20669;-82
2022/12/20 20:14:38;;;;;;;8.32;2.75;;;18.80;53.80;;;;;;5026508;28;20147;-84
2022/12/20 20:17:04;;;;;;;6.97;2.85;;;18.80;53.70;;;;;;5022320;28;20228;-85
2022/12/20 20:19:30;;;;;;;8.70;2.88;;;18.80;53.70;;;;;;5008164;28;20662;-84
2022/12/20 20:21:57;;;;;;;13.35;3.00;;;18.80;53.80;;;;;;5009414;28;20174;-83
2022/12/20 20:24:27;;;;;;;10.00;2.42;;;18.80;53.90;;;;;;5025755;28;20183;-82
2022/12/20 20:26:53;;;;;;;7.40;2.60;;;18.70;53.80;;;;;;5009889;28;20178;-82
2022/12/20 20:29:19;;;;;;;8.43;2.63;;;18.80;53.60;;;;;;5011464;28;20196;-82
2022/12/20 20:31:45;;;;;;;3.13;2.17;;;18.80;53.60;;;;;;4993960;28;20594;-82
2022/12/20 20:34:11;;;;;;;3.97;2.55;;;18.80;53.70;;;;;;4972986;28;20168;-82
2022/12/20 20:36:36;;;;;;;7.50;2.97;;;18.70;53.60;;;;;;5009880;28;20261;-83
2022/12/20 20:39:02;;;;;;;8.25;2.58;;;18.80;53.70;;;;;;5013964;28;20640;-82
2022/12/20 20:41:29;;;;;;;6.45;2.40;;;18.70;54.40;;;;;;4998239;28;20165;-82
2022/12/20 20:43:56;;;;;;;6.60;2.22;;;18.80;53.70;;;;;;4998851;28;20167;-82
2022/12/20 20:46:23;;;;;;;4.95;2.63;;;18.80;53.70;;;;;;4997960;28;20170;-81
2022/12/20 20:48:51;;;;;;;9.25;2.75;;;18.80;53.80;;;;;;4998314;28;20174;-82
2022/12/20 20:51:17;;;;;;;4.90;2.25;;;18.70;53.70;;;;;;5030757;28;20162;-82
2022/12/20 20:53:43;;;;;;;6.60;2.15;;;18.80;53.60;;;;;;5014097;28;20226;-82
2022/12/20 20:56:11;;;;;;;4.28;2.10;;;18.70;53.70;;;;;;4997150;28;20552;-82
2022/12/20 20:58:37;;;;;;;6.03;2.42;;;18.70;53.40;;;;;;5013979;28;20155;-82
2022/12/20 21:01:03;;;;;;;7.13;2.50;;;18.70;53.70;;;;;;5013982;28;20233;-82
2022/12/20 21:03:29;;;;;;;4.25;2.30;;;18.70;53.70;;;;;;5014860;28;20175;-82
2022/12/20 21:05:55;;;;;;;3.88;2.30;;;18.70;53.70;;;;;;4998170;28;20179;-82
2022/12/20 21:08:24;;;;;;;5.00;2.10;;;18.70;53.60;;;;;;4987540;28;20214;-82
2022/12/20 21:10:49;;;;;;;5.18;2.17;;;18.70;53.60;;;;;;4994041;28;20179;-82
2022/12/20 21:13:17;;;;;;;5.75;2.20;;;18.70;53.60;;;;;;4977246;28;20197;-82
2022/12/20 21:15:45;;;;;;;5.28;2.40;;;18.70;53.50;;;;;;4993703;28;20229;-83
2022/12/20 21:18:13;;;;;;;3.42;2.35;;;18.70;53.40;;;;;;4977859;28;20174;-82
2022/12/20 21:20:38;;;;;;;6.00;2.10;;;18.70;53.40;;;;;;4976534;28;20213;-82
2022/12/20 21:23:06;;;;;;;5.38;2.20;;;18.60;53.30;;;;;;5009429;28;20159;-83
2022/12/20 21:25:35;;;;;;;5.55;2.30;;;18.60;53.40;;;;;;4993277;28;20163;-82
2022/12/20 21:28:01;;;;;;;3.78;1.73;;;18.60;53.60;;;;;;4993837;28;20167;-83
2022/12/20 21:30:27;;;;;;;5.20;2.10;;;18.60;53.30;;;;;;4993335;28;20189;-82
2022/12/20 21:32:57;;;;;;;4.00;2.13;;;18.60;53.30;;;;;;5008979;28;20187;-82
2022/12/20 21:35:22;;;;;;;5.22;1.70;;;18.60;53.30;;;;;;5009540;28;20164;-82
2022/12/20 21:37:52;;;;;;;3.65;2.10;;;18.60;53.30;;;;;;4992786;28;20171;-82
2022/12/20 21:40:19;;;;;;;3.35;2.00;;;18.60;53.20;;;;;;4993736;28;20210;-82
2022/12/20 21:42:45;;;;;;;3.70;2.08;;;18.60;53.10;;;;;;4993387;28;20174;-82
2022/12/20 21:45:10;;;;;;;3.38;2.20;;;18.60;53.10;;;;;;4993991;28;20171;-82
2022/12/20 21:47:36;;;;;;;3.72;2.00;;;18.60;53.20;;;;;;4993559;28;20664;-83
2022/12/20 21:50:02;;;;;;;3.33;2.00;;;18.60;53.10;;;;;;4981019;28;20167;-83
2022/12/20 21:52:28;;;;;;;5.43;1.90;;;18.60;53.10;;;;;;4981573;28;20195;-83
2022/12/20 21:55:01;;;;;;;7.78;2.10;;;18.60;53.70;;;;;;5013883;28;20231;-82
2022/12/20 21:57:28;;;;;;;2.40;1.80;;;18.60;53.50;;;;;;4997624;28;20166;-83
2022/12/20 22:00:05;;;;;;;6.93;2.03;;;18.50;53.60;;;;;;4993814;28;20166;-83
2022/12/20 22:02:31;;;;;;;4.82;2.05;;;18.50;53.90;;;;;;5009793;28;20163;-82
2022/12/20 22:04:56;;;;;;;3.33;2.10;;;18.50;54.00;;;;;;4993770;28;20167;-83
2022/12/20 22:07:25;;;;;;;2.50;1.80;;;18.50;54.10;;;;;;4992814;28;20219;-83
2022/12/20 22:09:51;;;;;;;5.05;1.65;;;18.40;54.10;;;;;;5010178;28;20167;-82
2022/12/20 22:12:22;;;;;;;4.57;1.80;;;18.40;54.20;;;;;;4993036;28;20666;-83
2022/12/20 22:14:50;;;;;;;3.70;2.08;;;18.40;54.20;;;;;;4993121;28;20164;-82
2022/12/20 22:17:16;;;;;;;6.18;2.40;;;18.40;54.90;;;;;;5009348;28;20166;-83
2022/12/20 22:19:43;;;;;;;4.18;1.92;;;18.40;54.20;;;;;;5009182;28;20175;-82
2022/12/20 22:22:11;;;;;;;5.78;1.83;;;18.40;54.30;;;;;;5009342;28;20164;-82
2022/12/20 22:24:36;;;;;;;5.05;2.17;;;18.30;54.30;;;;;;4993438;28;20674;-83
2022/12/20 22:27:11;;;;;;;2.45;1.92;;;18.30;54.30;;;;;;4993118;28;20171;-82
2022/12/20 22:29:39;;;;;;;3.67;1.52;;;18.30;54.50;;;;;;4993413;28;20159;-83
2022/12/20 22:32:10;;;;;;;2.25;1.88;;;18.20;54.60;;;;;;4992539;28;20198;-82
2022/12/20 22:34:36;;;;;;;2.55;1.73;;;18.20;54.50;;;;;;5009353;28;20159;-83
2022/12/20 22:37:02;;;;;;;4.20;2.13;;;18.30;54.50;;;;;;5009115;28;20211;-82
2022/12/20 22:39:28;;;;;;;3.85;1.83;;;18.20;54.50;;;;;;5009088;28;20175;-83
2022/12/20 22:41:54;;;;;;;3.40;2.10;;;18.30;54.40;;;;;;4993010;28;20163;-82
2022/12/20 22:44:20;;;;;;;3.63;1.98;;;18.30;54.30;;;;;;5008681;28;20160;-83
2022/12/20 22:46:46;;;;;;;5.68;2.30;;;18.30;54.40;;;;;;4992962;28;20203;-84
2022/12/20 22:49:15;;;;;;;3.95;2.20;;;18.20;54.40;;;;;;5008469;28;20467;-82
2022/12/20 22:51:42;;;;;;;3.30;2.20;;;18.20;54.50;;;;;;4992384;28;20164;-83
2022/12/20 22:54:10;;;;;;;2.38;1.80;;;18.20;54.60;;;;;;5008799;28;20257;-83
2022/12/20 22:56:37;;;;;;;3.28;1.80;;;18.20;54.60;;;;;;5008385;28;20156;-83
2022/12/20 22:59:05;;;;;;;4.90;2.10;;;18.20;54.60;;;;;;4992800;28;20163;-82
2022/12/20 23:01:30;;;;;;;2.53;1.80;;;18.20;54.60;;;;;;5009028;28;20190;-82
2022/12/20 23:04:01;;;;;;;3.63;2.08;;;18.20;54.60;;;;;;4993091;28;20167;-82
2022/12/20 23:06:27;;;;;;;4.82;1.90;;;18.20;54.50;;;;;;5008628;28;20148;-82
2022/12/20 23:08:53;;;;;;;3.17;1.92;;;18.20;54.50;;;;;;5008205;28;20167;-83
2022/12/20 23:16:56;;;;;;;5.40;1.90;;;18.10;54.70;;;;;;5026335;28;20151;-83
2022/12/20 23:19:22;;;;;;;5.85;2.00;;;18.10;54.60;;;;;;4992928;28;20243;-83
2022/12/20 23:24:35;;;;;;;4.00;1.85;;;18.10;55.20;;;;;;5011598;28;20207;-82
2022/12/20 23:27:01;;;;;;;3.42;1.90;;;18.10;54.60;;;;;;4992884;28;20230;-83
2022/12/20 23:29:28;;;;;;;2.97;2.03;;;18.10;54.60;;;;;;5008363;28;20257;-83
2022/12/20 23:31:54;;;;;;;3.20;1.70;;;18.10;54.70;;;;;;4992791;28;20175;-83
2022/12/20 23:34:23;;;;;;;2.72;1.75;;;18.10;54.70;;;;;;5009067;28;20174;-83
2022/12/20 23:36:52;;;;;;;3.47;1.70;;;18.00;54.70;;;;;;4991887;28;20194;-83
2022/12/20 23:39:17;;;;;;;3.33;1.52;;;18.00;54.70;;;;;;5008478;28;20170;-83
2022/12/20 23:41:43;;;;;;;3.38;1.88;;;18.00;54.70;;;;;;4992249;28;20187;-82
2022/12/20 23:44:09;;;;;;;4.05;1.90;;;18.00;54.80;;;;;;5009194;28;20257;-83
2022/12/20 23:46:35;;;;;;;3.92;1.85;;;18.00;54.70;;;;;;4996004;28;20183;-83
2022/12/20 23:49:00;;;;;;;3.58;1.75;;;18.00;54.80;;;;;;5012379;28;20183;-83
2022/12/20 23:51:26;;;;;;;3.38;1.60;;;18.00;54.80;;;;;;4996029;28;20175;-82
2022/12/20 23:53:52;;;;;;;3.63;1.83;;;18.00;54.80;;;;;;5011155;28;20222;-82
2022/12/20 23:56:19;;;;;;;2.63;1.77;;;18.00;54.80;;;;;;5011705;28;20242;-83
2022/12/20 23:58:48;;;;;;;4.70;1.98;;;18.00;54.80;;;;;;4995670;28;20160;-83
